Time;durP1;ratioP1;P1;durP2;ratioP2;P2;SDS_P1;SDS_P2;PMS_P1;PMS_P2;Temp;Humidity;BMP_temperature;BMP_pressure;BME280_temperature;BME280_humidity;BME280_pressure;Samples;Min_cycle;Max_cycle;Signal;HPM_P1;HPM_P2
2023/10/18 00:01:49;;;;;;;;;;;;;;;8.47;61.88;100837.44;5502511;32;34263;-77
2023/10/18 00:04:51;;;;;;;;;;;;;;;9.38;58.72;100833.41;5491834;32;34094;-77
2023/10/18 00:07:57;;;;;;;;;;;;;;;9.35;58.33;100820.41;5490779;32;33011;-78
2023/10/18 00:11:00;;;;;;;;;;;;;;;9.15;59.25;100834.91;5490289;32;33647;-78
2023/10/18 00:14:03;;;;;;;;;;;;;;;9.66;57.15;100829.16;5503363;32;34586;-77
2023/10/18 00:17:05;;;;;;;;;;;;;;;9.26;58.43;100813.63;5482687;32;34373;-77
2023/10/18 00:20:13;;;;;;;;;;;;;;;9.16;58.74;100815.63;5504211;32;34743;-78
2023/10/18 00:23:16;;;;;;;;;;;;;;;9.08;59.19;100820.22;5502610;32;34249;-77
2023/10/18 00:26:18;;;;;;;;;;;;;;;9.73;57.09;100824.59;5489077;32;34184;-78
2023/10/18 00:29:20;;;;;;;;;;;;;;;9.45;57.79;100837.59;5489182;32;34177;-77
2023/10/18 00:32:22;;;;;;;;;;;;;;;8.72;59.73;100839.50;5495614;32;35427;-76
2023/10/18 00:35:36;;;;;;;;;;;;;;;8.07;62.32;100826.97;5504823;32;33929;-76
2023/10/18 00:38:41;;;;;;;;;;;;;;;7.97;63.31;100830.69;5503803;32;35359;-78
2023/10/18 00:41:44;;;;;;;;;;;;;;;7.98;63.36;100828.03;5503401;32;34326;-76
2023/10/18 00:45:01;;;;;;;;;;;;;;;8.02;62.84;100821.84;5488652;32;34295;-78
2023/10/18 00:48:06;;;;;;;;;;;;;;;7.87;63.25;100837.88;5499568;32;34268;-78
2023/10/18 00:51:13;;;;;;;;;;;;;;;8.37;61.65;100831.59;5488716;32;34294;-78
2023/10/18 00:54:16;;;;;;;;;;;;;;;8.48;61.36;100820.84;5491091;32;34474;-78
2023/10/18 00:57:20;;;;;;;;;;;;;;;8.51;60.95;100807.69;5486534;32;34350;-78
2023/10/18 01:00:40;;;;;;;;;;;;;;;8.59;58.96;100823.22;5502629;32;35467;-78
2023/10/18 01:03:46;;;;;;;;;;;;;;;8.01;61.89;100822.75;5504439;32;35435;-78
2023/10/18 01:06:57;;;;;;;;;;;;;;;8.23;60.88;100806.53;5504389;32;34194;-78
2023/10/18 01:10:06;;;;;;;;;;;;;;;7.87;62.29;100798.63;5504287;32;34141;-78
2023/10/18 01:13:09;;;;;;;;;;;;;;;7.39;63.02;100785.63;5484123;32;34377;-79
2023/10/18 01:16:22;;;;;;;;;;;;;;;7.47;63.40;100781.16;5487389;32;34056;-79
2023/10/18 01:19:24;;;;;;;;;;;;;;;7.96;61.67;100787.09;5505621;32;34638;-79
2023/10/18 01:22:30;;;;;;;;;;;;;;;8.41;60.24;100790.44;5486099;32;34138;-79
2023/10/18 01:25:33;;;;;;;;;;;;;;;8.62;59.37;100782.06;5486359;32;33726;-79
2023/10/18 01:28:35;;;;;;;;;;;;;;;8.24;60.36;100777.69;5499440;32;35427;-80
2023/10/18 01:31:44;;;;;;;;;;;;;;;8.60;59.83;100777.75;5489722;32;33989;-79
2023/10/18 01:34:47;;;;;;;;;;;;;;;7.20;63.94;100781.66;5492901;32;34197;-79
2023/10/18 01:37:53;;;;;;;;;;;;;;;7.82;62.79;100787.38;5501661;32;34003;-79
2023/10/18 01:40:57;;;;;;;;;;;;;;;7.63;63.88;100796.50;5505913;32;33574;-79
2023/10/18 01:44:07;;;;;;;;;;;;;;;7.72;63.66;100789.31;5504333;32;35505;-80
2023/10/18 01:47:12;;;;;;;;;;;;;;;8.38;60.82;100790.53;5501394;32;34476;-80
2023/10/18 01:50:15;;;;;;;;;;;;;;;8.35;61.26;100787.94;5504360;32;34128;-77
2023/10/18 01:53:20;;;;;;;;;;;;;;;7.09;65.11;100794.09;5500889;32;33140;-77
2023/10/18 01:56:22;;;;;;;;;;;;;;;6.98;66.91;100789.91;5505995;32;34195;-78
2023/10/18 01:59:27;;;;;;;;;;;;;;;7.59;64.71;100783.47;5504587;32;35341;-78
2023/10/18 02:02:32;;;;;;;;;;;;;;;7.50;64.92;100786.31;5489717;32;33947;-78
2023/10/18 02:05:39;;;;;;;;;;;;;;;7.76;63.44;100777.06;5485616;32;34327;-79
2023/10/18 02:08:41;;;;;;;;;;;;;;;7.87;63.13;100775.06;5505238;32;33771;-78
2023/10/18 02:11:44;;;;;;;;;;;;;;;7.90;62.92;100780.22;5491123;32;34063;-78
2023/10/18 02:14:46;;;;;;;;;;;;;;;8.37;61.34;100773.97;5484717;32;33987;-78
2023/10/18 02:17:51;;;;;;;;;;;;;;;7.79;62.89;100777.84;5494188;32;33146;-77
2023/10/18 02:21:00;;;;;;;;;;;;;;;7.29;64.19;100787.59;5503381;32;34055;-77
2023/10/18 02:24:02;;;;;;;;;;;;;;;7.95;62.39;100781.00;5492134;32;35533;-77
2023/10/18 02:27:09;;;;;;;;;;;;;;;7.86;62.92;100783.81;5501697;32;33751;-77
2023/10/18 02:30:17;;;;;;;;;;;;;;;6.47;67.46;100791.66;5498333;32;34754;-77
2023/10/18 02:33:19;;;;;;;;;;;;;;;6.75;67.39;100787.69;5488997;32;32881;-78
2023/10/18 02:36:23;;;;;;;;;;;;;;;7.15;65.14;100789.59;5502659;32;34111;-78
2023/10/18 02:39:32;;;;;;;;;;;;;;;6.59;66.05;100788.84;5504912;32;35442;-78
2023/10/18 02:42:35;;;;;;;;;;;;;;;6.49;67.18;100785.50;5488642;32;34336;-78
2023/10/18 02:45:38;;;;;;;;;;;;;;;6.46;66.79;100788.16;5502980;32;34809;-79
2023/10/18 02:48:41;;;;;;;;;;;;;;;6.33;67.86;100789.25;5493153;32;34098;-79
2023/10/18 02:51:44;;;;;;;;;;;;;;;6.91;65.95;100801.34;5505653;32;34140;-79
2023/10/18 02:54:48;;;;;;;;;;;;;;;6.56;66.58;100801.94;5488519;32;34157;-79
2023/10/18 02:57:52;;;;;;;;;;;;;;;7.33;64.08;100794.47;5503499;32;35186;-79
2023/10/18 03:00:55;;;;;;;;;;;;;;;7.04;65.11;100802.87;5482668;32;35208;-79
2023/10/18 03:03:59;;;;;;;;;;;;;;;6.53;67.25;100795.91;5487758;32;34295;-79
2023/10/18 03:07:02;;;;;;;;;;;;;;;6.78;66.09;100790.25;5489906;32;35308;-79
2023/10/18 03:10:11;;;;;;;;;;;;;;;6.84;66.20;100791.91;5502912;32;34999;-79
2023/10/18 03:13:17;;;;;;;;;;;;;;;7.93;62.54;100789.78;5487102;32;35311;-79
2023/10/18 03:19:34;;;;;;;;;;;;;;;7.14;64.71;100781.78;5499765;32;34169;-80
2023/10/18 03:22:42;;;;;;;;;;;;;;;7.97;61.68;100775.72;5507357;32;34309;-80
2023/10/18 03:25:44;;;;;;;;;;;;;;;7.70;62.73;100777.19;5504775;32;33850;-79
2023/10/18 03:28:47;;;;;;;;;;;;;;;6.86;65.14;100760.50;5502158;32;34764;-79
2023/10/18 03:31:50;;;;;;;;;;;;;;;6.82;65.97;100777.13;5502775;32;35649;-79
2023/10/18 03:34:52;;;;;;;;;;;;;;;7.30;65.01;100772.75;5502309;32;34446;-80
2023/10/18 03:37:57;;;;;;;;;;;;;;;7.70;63.13;100770.19;5505319;32;34091;-78
2023/10/18 03:40:59;;;;;;;;;;;;;;;7.93;61.78;100768.84;5494381;32;35081;-77
2023/10/18 03:44:06;;;;;;;;;;;;;;;6.53;65.81;100767.19;5489466;32;34205;-77
2023/10/18 03:47:12;;;;;;;;;;;;;;;6.76;67.01;100760.69;5502019;32;34406;-77
2023/10/18 03:50:15;;;;;;;;;;;;;;;7.07;65.60;100763.59;5504376;32;33917;-77
2023/10/18 03:53:18;;;;;;;;;;;;;;;7.27;65.18;100764.97;5487985;32;34088;-77
2023/10/18 03:56:22;;;;;;;;;;;;;;;7.58;63.49;100763.44;5501491;32;34100;-77
2023/10/18 03:59:25;;;;;;;;;;;;;;;7.09;64.06;100760.97;5504467;32;34097;-79
2023/10/18 04:02:27;;;;;;;;;;;;;;;7.15;63.71;100766.09;5486151;32;34247;-80
2023/10/18 04:05:43;;;;;;;;;;;;;;;6.61;65.63;100770.53;5499479;32;35484;-78
2023/10/18 04:08:47;;;;;;;;;;;;;;;7.40;64.59;100763.81;5506195;32;34093;-78
2023/10/18 04:11:49;;;;;;;;;;;;;;;7.78;62.49;100770.03;5500501;32;35510;-77
2023/10/18 04:15:00;;;;;;;;;;;;;;;6.96;64.61;100756.88;5503858;32;35706;-80
2023/10/18 04:18:11;;;;;;;;;;;;;;;6.83;66.41;100777.13;5486036;32;34226;-79
2023/10/18 04:21:22;;;;;;;;;;;;;;;6.24;67.29;100768.50;5501044;32;35404;-77
2023/10/18 04:24:25;;;;;;;;;;;;;;;5.77;70.93;100783.06;5505168;32;34191;-79
2023/10/18 04:27:27;;;;;;;;;;;;;;;5.96;70.41;100784.56;5486691;32;34520;-79
2023/10/18 04:30:32;;;;;;;;;;;;;;;6.52;69.11;100784.59;5487460;32;32754;-78
2023/10/18 04:33:41;;;;;;;;;;;;;;;6.91;66.52;100777.84;5473996;32;35000;-79
2023/10/18 04:36:44;;;;;;;;;;;;;;;6.68;66.34;100787.81;5504122;32;32857;-79
2023/10/18 04:39:46;;;;;;;;;;;;;;;6.71;67.07;100777.34;5486903;32;34323;-80
2023/10/18 04:42:50;;;;;;;;;;;;;;;7.44;64.15;100782.94;5490051;32;34107;-79
2023/10/18 04:45:56;;;;;;;;;;;;;;;7.17;64.64;100781.72;5498677;32;34275;-80
2023/10/18 04:52:04;;;;;;;;;;;;;;;7.42;64.03;100777.75;5491468;32;34748;-80
2023/10/18 04:55:15;;;;;;;;;;;;;;;7.15;63.86;100773.94;5498655;32;33880;-79
2023/10/18 04:58:17;;;;;;;;;;;;;;;7.72;62.08;100785.84;5490619;32;34206;-79
2023/10/18 05:01:22;;;;;;;;;;;;;;;6.75;63.56;100785.06;5504390;32;34211;-79
2023/10/18 05:04:29;;;;;;;;;;;;;;;6.28;66.64;100787.59;5502431;32;34582;-77
2023/10/18 05:07:47;;;;;;;;;;;;;;;6.35;67.03;100786.59;5506702;32;35795;-79
2023/10/18 05:10:52;;;;;;;;;;;;;;;7.02;64.25;100783.75;5486931;32;32948;-79
2023/10/18 05:13:56;;;;;;;;;;;;;;;7.38;62.82;100763.00;5505737;32;35212;-78
2023/10/18 05:16:59;;;;;;;;;;;;;;;7.46;62.45;100779.41;5502646;32;34184;-78
2023/10/18 05:23:32;;;;;;;;;;;;;;;6.98;64.60;100789.91;5492825;32;34222;-78
2023/10/18 05:26:34;;;;;;;;;;;;;;;7.53;62.68;100793.22;5499676;32;34345;-79
2023/10/18 05:29:43;;;;;;;;;;;;;;;6.87;64.37;100794.44;5505497;32;35292;-80
2023/10/18 05:32:49;;;;;;;;;;;;;;;7.28;63.49;100795.47;5507394;32;37059;-77
2023/10/18 05:35:56;;;;;;;;;;;;;;;7.14;64.57;100802.69;5499723;32;34166;-77
2023/10/18 05:42:21;;;;;;;;;;;;;;;7.82;61.44;100796.09;5499499;32;33407;-78
2023/10/18 05:45:23;;;;;;;;;;;;;;;7.34;63.52;100803.16;5486535;32;35378;-79
2023/10/18 05:48:25;;;;;;;;;;;;;;;7.06;64.57;100805.44;5487378;32;34137;-78
2023/10/18 05:51:34;;;;;;;;;;;;;;;7.90;62.74;100798.53;5499801;32;35294;-81
2023/10/18 05:54:43;;;;;;;;;;;;;;;8.21;61.10;100797.88;5491314;32;34525;-79
2023/10/18 05:57:46;;;;;;;;;;;;;;;6.83;65.91;100795.41;5501686;32;34277;-79
2023/10/18 06:00:48;;;;;;;;;;;;;;;6.97;65.34;100803.00;5500777;32;35734;-78
2023/10/18 06:03:51;;;;;;;;;;;;;;;7.94;63.31;100801.97;5488914;32;32751;-78
2023/10/18 06:07:04;;;;;;;;;;;;;;;7.95;63.31;100795.84;5501273;32;34149;-80
2023/10/18 06:10:13;;;;;;;;;;;;;;;8.17;62.82;100799.69;5502162;32;34306;-78
2023/10/18 06:13:20;;;;;;;;;;;;;;;9.00;59.82;100803.81;5497517;32;35546;-79
2023/10/18 06:16:29;;;;;;;;;;;;;;;10.23;56.74;100802.06;5500526;32;35216;-80
2023/10/18 06:19:38;;;;;;;;;;;;;;;10.54;55.17;100801.97;5484542;32;34545;-75
2023/10/18 06:22:47;;;;;;;;;;;;;;;10.92;52.99;100801.62;5504382;32;35450;-80
2023/10/18 06:25:49;;;;;;;;;;;;;;;10.53;52.96;100804.66;5502034;32;36637;-81
2023/10/18 06:28:53;;;;;;;;;;;;;;;11.02;51.90;100809.16;5487429;32;35193;-80
2023/10/18 06:31:56;;;;;;;;;;;;;;;11.48;51.25;100812.78;5499725;32;34253;-77
2023/10/18 06:34:58;;;;;;;;;;;;;;;11.59;49.36;100813.28;5498813;32;34166;-78
2023/10/18 06:38:09;;;;;;;;;;;;;;;12.86;46.54;100807.44;5502434;32;35625;-77
2023/10/18 06:41:11;;;;;;;;;;;;;;;12.08;48.67;100816.72;5500592;32;34930;-77
2023/10/18 06:44:14;;;;;;;;;;;;;;;12.36;48.36;100821.75;5498570;32;34472;-79
2023/10/18 06:47:16;;;;;;;;;;;;;;;14.25;43.33;100799.47;5487667;32;35405;-80
2023/10/18 06:50:26;;;;;;;;;;;;;;;13.78;44.96;100801.66;5502824;32;34261;-76
2023/10/18 06:53:31;;;;;;;;;;;;;;;13.54;43.57;100806.31;5489989;32;34058;-80
2023/10/18 06:56:39;;;;;;;;;;;;;;;14.03;43.65;100799.59;5484365;32;36326;-76
2023/10/18 06:59:42;;;;;;;;;;;;;;;15.84;39.05;100794.03;5502123;32;34231;-76
2023/10/18 07:02:44;;;;;;;;;;;;;;;15.85;39.11;100792.25;5500851;32;34760;-80
2023/10/18 07:05:52;;;;;;;;;;;;;;;14.73;41.52;100794.53;5499532;32;33316;-77
2023/10/18 07:08:54;;;;;;;;;;;;;;;16.63;38.07;100790.50;5502150;32;34030;-75
2023/10/18 07:11:57;;;;;;;;;;;;;;;17.17;35.97;100788.22;5501609;32;36225;-76
2023/10/18 07:15:00;;;;;;;;;;;;;;;16.13;38.57;100797.72;5503252;32;34492;-77
2023/10/18 07:18:09;;;;;;;;;;;;;;;16.67;37.43;100776.94;5498120;32;34482;-79
2023/10/18 07:21:18;;;;;;;;;;;;;;;17.29;36.56;100787.47;5491754;32;35382;-76
2023/10/18 07:24:36;;;;;;;;;;;;;;;15.18;39.96;100797.50;5495053;32;33687;-76
2023/10/18 07:27:41;;;;;;;;;;;;;;;14.65;40.93;100799.34;5499653;32;36251;-76
2023/10/18 07:30:44;;;;;;;;;;;;;;;15.03;41.06;100798.28;5501866;32;34016;-75
2023/10/18 07:33:50;;;;;;;;;;;;;;;14.45;41.85;100789.72;5486332;32;34251;-74
2023/10/18 07:36:54;;;;;;;;;;;;;;;11.54;49.92;100795.94;5501962;32;34678;-75
2023/10/18 07:40:04;;;;;;;;;;;;;;;11.12;51.04;100804.41;5497186;32;35793;-75
2023/10/18 07:43:07;;;;;;;;;;;;;;;10.77;51.51;100803.00;5489338;32;34087;-77
2023/10/18 07:46:18;;;;;;;;;;;;;;;11.69;49.91;100795.34;5487988;32;33924;-75
2023/10/18 07:49:21;;;;;;;;;;;;;;;12.22;48.08;100795.09;5500992;32;34708;-75
2023/10/18 07:52:23;;;;;;;;;;;;;;;11.80;48.41;100790.53;5482610;32;34868;-76
2023/10/18 07:55:27;;;;;;;;;;;;;;;10.51;52.24;100781.06;5499012;32;35443;-75
2023/10/18 07:58:32;;;;;;;;;;;;;;;12.20;47.66;100796.94;5498290;32;34117;-74
2023/10/18 08:02:07;;;;;;;;;;;;;;;11.04;51.14;100788.91;5496086;32;35662;-76
2023/10/18 08:05:01;;;;;;;;;;;;;;;11.03;51.80;100787.19;5499830;32;33971;-75
2023/10/18 08:08:08;;;;;;;;;;;;;;;10.67;52.51;100791.06;5503882;32;33722;-75
2023/10/18 08:11:12;;;;;;;;;;;;;;;10.63;52.79;100787.69;5483795;32;34326;-74
2023/10/18 08:14:16;;;;;;;;;;;;;;;11.55;49.76;100789.75;5486838;32;35622;-75
2023/10/18 08:21:06;;;;;;;;;;;;;;;11.46;49.85;100787.44;5473839;32;33806;-75
2023/10/18 08:24:08;;;;;;;;;;;;;;;10.89;51.25;100767.53;5492921;32;34126;-76
2023/10/18 08:27:10;;;;;;;;;;;;;;;10.25;53.61;100787.16;5486185;32;34229;-75
2023/10/18 08:30:22;;;;;;;;;;;;;;;10.68;52.48;100777.84;5499425;32;33138;-76
2023/10/18 08:33:24;;;;;;;;;;;;;;;11.00;51.21;100768.00;5497896;32;34191;-75
2023/10/18 08:36:30;;;;;;;;;;;;;;;11.59;50.35;100772.91;5480210;32;34946;-76
2023/10/18 08:39:33;;;;;;;;;;;;;;;11.57;50.16;100770.34;5496370;32;35183;-76
2023/10/18 08:42:39;;;;;;;;;;;;;;;11.73;49.88;100767.16;5500575;32;34080;-75
2023/10/18 08:45:47;;;;;;;;;;;;;;;11.06;51.81;100773.91;5473916;32;33930;-75
2023/10/18 08:48:51;;;;;;;;;;;;;;;11.50;50.48;100762.72;5485343;32;34731;-76
2023/10/18 08:52:04;;;;;;;;;;;;;;;11.88;49.10;100761.31;5483508;32;34187;-76
2023/10/18 08:58:35;;;;;;;;;;;;;;;12.16;48.42;100756.66;5487974;32;34624;-75
2023/10/18 09:01:37;;;;;;;;;;;;;;;11.96;49.22;100758.38;5485025;32;34232;-74
2023/10/18 09:04:44;;;;;;;;;;;;;;;11.89;49.62;100755.97;5481426;32;35390;-75
2023/10/18 09:07:49;;;;;;;;;;;;;;;12.28;48.56;100752.69;5498179;32;34198;-75
2023/10/18 09:10:54;;;;;;;;;;;;;;;11.76;49.96;100753.84;5483795;32;34036;-75
2023/10/18 09:14:07;;;;;;;;;;;;;;;12.46;48.02;100745.81;5489474;32;35442;-74
2023/10/18 09:17:10;;;;;;;;;;;;;;;12.40;47.38;100739.00;5501011;32;34050;-73
2023/10/18 09:20:15;;;;;;;;;;;;;;;12.10;47.60;100742.88;5495417;32;34165;-73
2023/10/18 09:23:20;;;;;;;;;;;;;;;13.31;45.02;100730.75;5499161;32;34309;-75
2023/10/18 09:26:28;;;;;;;;;;;;;;;12.68;46.10;100732.59;5480277;32;36446;-77
2023/10/18 09:29:31;;;;;;;;;;;;;;;13.79;43.60;100727.66;5467127;32;32803;-77
2023/10/18 09:32:33;;;;;;;;;;;;;;;12.91;45.52;100731.63;5465392;32;34419;-75
2023/10/18 09:35:36;;;;;;;;;;;;;;;13.67;42.93;100719.44;5469454;32;34052;-76
2023/10/18 09:38:41;;;;;;;;;;;;;;;13.99;42.27;100728.50;5424083;32;33810;-79
2023/10/18 09:41:45;;;;;;;;;;;;;;;13.96;42.57;100729.47;5422789;32;36234;-78
2023/10/18 09:44:48;;;;;;;;;;;;;;;12.89;44.91;100723.78;5422070;32;35392;-75
2023/10/18 09:47:50;;;;;;;;;;;;;;;14.52;41.67;100712.66;5428982;32;35570;-75
2023/10/18 09:50:53;;;;;;;;;;;;;;;13.45;44.18;100725.69;5426267;32;34043;-76
2023/10/18 09:53:55;;;;;;;;;;;;;;;14.35;41.93;100707.31;5426223;32;34179;-74
2023/10/18 09:56:57;;;;;;;;;;;;;;;13.77;42.54;100713.62;5429842;32;36061;-73
2023/10/18 10:00:11;;;;;;;;;;;;;;;15.17;38.78;100700.47;5430367;32;34420;-74
2023/10/18 10:03:24;;;;;;;;;;;;;;;14.11;41.08;100688.25;5431624;32;34195;-78
2023/10/18 10:06:31;;;;;;;;;;;;;;;15.32;35.98;100700.56;5431593;32;34703;-74
2023/10/18 10:09:38;;;;;;;;;;;;;;;16.02;35.15;100678.16;5435417;32;35184;-78
2023/10/18 10:12:44;;;;;;;;;;;;;;;17.22;33.03;100680.75;5431883;32;34174;-74
2023/10/18 10:15:54;;;;;;;;;;;;;;;19.24;29.71;100674.53;5433429;32;35515;-76
2023/10/18 10:19:09;;;;;;;;;;;;;;;19.50;28.71;100654.84;5433085;32;35730;-74
2023/10/18 10:22:11;;;;;;;;;;;;;;;20.38;28.03;100646.63;5433193;32;34195;-77
2023/10/18 10:25:19;;;;;;;;;;;;;;;21.33;26.43;100645.47;5431845;32;34721;-74
2023/10/18 10:29:09;;;;;;;;;;;;;;;19.44;28.70;100648.16;5433084;32;33614;-75
2023/10/18 10:32:06;;;;;;;;;;;;;;;19.44;28.29;100640.16;5432941;32;32777;-73
2023/10/18 10:35:15;;;;;;;;;;;;;;;20.38;27.61;100628.78;5433863;32;33306;-75
2023/10/18 10:38:26;;;;;;;;;;;;;;;20.67;26.76;100623.03;5413456;32;33709;-75
2023/10/18 10:41:33;;;;;;;;;;;;;;;20.02;27.06;100629.72;5432585;32;34186;-75
2023/10/18 10:44:55;;;;;;;;;;;;;;;18.07;29.87;100631.03;5433773;32;34020;-75
2023/10/18 10:48:15;;;;;;;;;;;;;;;18.96;29.20;100627.66;5432114;32;35351;-77
2023/10/18 10:51:20;;;;;;;;;;;;;;;18.92;28.80;100627.03;5435434;32;34071;-75
2023/10/18 10:54:26;;;;;;;;;;;;;;;19.44;27.35;100616.16;5433131;32;33631;-75
2023/10/18 10:57:29;;;;;;;;;;;;;;;18.02;29.42;100623.34;5430156;32;35041;-80
2023/10/18 11:00:37;;;;;;;;;;;;;;;17.81;30.34;100611.50;5429358;32;34235;-75
2023/10/18 11:03:55;;;;;;;;;;;;;;;19.40;28.10;100601.38;5431706;32;35311;-73
2023/10/18 11:07:09;;;;;;;;;;;;;;;20.05;27.37;100586.81;5430793;32;36648;-79
2023/10/18 11:10:16;;;;;;;;;;;;;;;17.92;30.66;100608.12;5445359;32;34237;-83
2023/10/18 11:13:25;;;;;;;;;;;;;;;17.63;30.53;100594.03;5446517;32;34461;-81
2023/10/18 11:16:27;;;;;;;;;;;;;;;18.49;30.20;100594.53;5436220;32;34277;-88
2023/10/18 11:19:29;;;;;;;;;;;;;;;19.23;29.27;100584.88;5441288;32;35367;-83
2023/10/18 11:22:35;;;;;;;;;;;;;;;20.15;27.46;100581.62;5434489;32;34621;-78
2023/10/18 11:25:40;;;;;;;;;;;;;;;19.96;27.75;100577.69;5434370;32;34207;-81
2023/10/18 11:28:42;;;;;;;;;;;;;;;20.04;27.63;100568.28;5434371;32;34931;-81
2023/10/18 11:31:44;;;;;;;;;;;;;;;21.43;25.82;100555.50;5441080;32;34226;-82
2023/10/18 11:34:51;;;;;;;;;;;;;;;19.98;27.67;100559.75;5431468;32;35077;-80
2023/10/18 11:37:55;;;;;;;;;;;;;;;19.99;28.23;100550.78;5435707;32;34636;-77
2023/10/18 11:41:09;;;;;;;;;;;;;;;17.17;32.59;100567.78;5444011;32;34364;-85
2023/10/18 11:44:27;;;;;;;;;;;;;;;18.42;30.67;100548.84;5437426;32;34094;-86
2023/10/18 11:47:30;;;;;;;;;;;;;;;18.77;30.11;100545.56;5444964;32;35110;-86
2023/10/18 11:50:42;;;;;;;;;;;;;;;18.02;31.26;100537.41;5432323;32;34973;-81
2023/10/18 11:53:51;;;;;;;;;;;;;;;16.92;33.64;100544.56;5436374;32;35875;-83
2023/10/18 11:56:53;;;;;;;;;;;;;;;18.52;30.65;100522.44;5435109;32;34046;-88
2023/10/18 12:03:21;;;;;;;;;;;;;;;16.56;33.96;100529.97;5433939;32;34221;-81
2023/10/18 12:06:24;;;;;;;;;;;;;;;17.09;33.23;100524.94;5439919;32;34255;-82
2023/10/18 12:09:30;;;;;;;;;;;;;;;17.20;33.50;100520.66;5433829;32;34114;-82
2023/10/18 12:12:33;;;;;;;;;;;;;;;18.15;31.21;100503.69;5436051;32;34113;-80
2023/10/18 12:15:36;;;;;;;;;;;;;;;18.88;30.28;100503.06;5435885;32;34239;-80
2023/10/18 12:18:40;;;;;;;;;;;;;;;18.55;30.88;100508.94;5420731;32;34242;-77
2023/10/18 12:21:48;;;;;;;;;;;;;;;18.74;33.56;100504.03;5433044;32;34141;-80
2023/10/18 12:24:51;;;;;;;;;;;;;;;18.75;32.14;100497.75;5421159;32;33992;-82
2023/10/18 12:27:53;;;;;;;;;;;;;;;18.76;34.05;100498.59;5434558;32;34347;-79
2023/10/18 12:30:55;;;;;;;;;;;;;;;18.88;31.54;100489.72;5427196;32;34930;-77
2023/10/18 12:33:59;;;;;;;;;;;;;;;18.80;31.45;100500.06;5432425;32;33754;-86
2023/10/18 12:37:02;;;;;;;;;;;;;;;17.81;32.06;100494.50;5430641;32;34487;-83
2023/10/18 12:40:14;;;;;;;;;;;;;;;17.30;33.02;100479.22;5430330;32;36137;-81
2023/10/18 12:43:20;;;;;;;;;;;;;;;17.51;33.28;100476.09;5434485;32;35230;-85
2023/10/18 12:46:23;;;;;;;;;;;;;;;18.35;31.58;100462.41;5432237;32;34020;-85
2023/10/18 12:49:31;;;;;;;;;;;;;;;19.41;29.58;100459.16;5421680;32;34563;-82
2023/10/18 12:55:36;;;;;;;;;;;;;;;17.47;32.76;100461.34;5437539;32;34258;-86
2023/10/18 12:59:37;;;;;;;;;;;;;;;18.17;31.43;100451.25;5446935;32;34035;-88
2023/10/18 13:02:11;;;;;;;;;;;;;;;18.53;30.99;100441.63;5435688;32;33254;-88
2023/10/18 13:05:14;;;;;;;;;;;;;;;19.14;30.72;100429.22;5437162;32;34623;-83
2023/10/18 13:08:34;;;;;;;;;;;;;;;18.35;30.84;100436.69;5429502;32;34023;-79
2023/10/18 13:14:42;;;;;;;;;;;;;;;19.16;30.35;100427.28;5431789;32;34440;-82
2023/10/18 13:17:44;;;;;;;;;;;;;;;18.87;30.43;100421.44;5423223;32;34507;-85
2023/10/18 13:20:48;;;;;;;;;;;;;;;19.82;29.28;100420.53;5429812;32;35252;-82
2023/10/18 13:23:51;;;;;;;;;;;;;;;21.34;27.14;100415.44;5433168;32;35348;-79
2023/10/18 13:26:59;;;;;;;;;;;;;;;20.91;27.61;100411.91;5430709;32;34141;-81
2023/10/18 13:31:04;;;;;;;;;;;;;;;20.14;28.51;100403.81;5436420;32;35880;-87
2023/10/18 13:33:38;;;;;;;;;;;;;;;19.96;28.83;100411.44;5434892;32;34595;-82
2023/10/18 13:36:41;;;;;;;;;;;;;;;19.62;29.40;100400.72;5435910;32;35265;-84
2023/10/18 13:39:47;;;;;;;;;;;;;;;21.34;26.84;100388.72;5433802;32;35075;-80
2023/10/18 13:42:50;;;;;;;;;;;;;;;20.34;28.31;100384.41;5431673;32;34517;-83
2023/10/18 13:45:59;;;;;;;;;;;;;;;18.69;30.61;100381.06;5429746;32;34028;-85
2023/10/18 13:49:03;;;;;;;;;;;;;;;17.85;31.76;100384.34;5431302;32;34317;-86
2023/10/18 13:52:05;;;;;;;;;;;;;;;18.36;31.26;100363.03;5429997;32;34526;-78
2023/10/18 13:55:07;;;;;;;;;;;;;;;18.88;30.92;100359.25;5431913;32;34097;-79
2023/10/18 13:58:10;;;;;;;;;;;;;;;18.85;30.67;100360.31;5433090;32;33579;-81
2023/10/18 14:01:16;;;;;;;;;;;;;;;17.94;32.24;100356.25;5432007;32;35048;-82
2023/10/18 14:04:25;;;;;;;;;;;;;;;17.19;33.83;100362.22;5428482;32;35184;-83
2023/10/18 14:07:28;;;;;;;;;;;;;;;16.94;33.80;100349.75;5435012;32;35353;-81
2023/10/18 14:10:35;;;;;;;;;;;;;;;17.34;33.19;100352.37;5425879;32;35149;-81
2023/10/18 14:13:38;;;;;;;;;;;;;;;17.08;33.91;100332.91;5431842;32;34294;-83
2023/10/18 14:16:41;;;;;;;;;;;;;;;17.66;32.94;100338.72;5429241;32;34006;-80
2023/10/18 14:19:43;;;;;;;;;;;;;;;16.80;34.35;100325.91;5431516;32;33934;-80
2023/10/18 14:22:47;;;;;;;;;;;;;;;17.45;33.22;100327.72;5428740;32;34127;-83
2023/10/18 14:25:49;;;;;;;;;;;;;;;16.50;35.22;100323.44;5429381;32;34298;-81
2023/10/18 14:28:51;;;;;;;;;;;;;;;15.97;36.32;100331.19;5431435;32;35430;-79
2023/10/18 14:31:53;;;;;;;;;;;;;;;16.75;35.19;100322.72;5448659;32;34326;-80
2023/10/18 14:34:55;;;;;;;;;;;;;;;17.03;34.32;100324.38;5447277;32;34722;-78
2023/10/18 14:38:06;;;;;;;;;;;;;;;17.03;34.20;100317.25;5446033;32;34280;-79
2023/10/18 14:41:13;;;;;;;;;;;;;;;17.44;33.49;100326.88;5445759;32;34277;-79
2023/10/18 14:44:32;;;;;;;;;;;;;;;17.22;33.72;100316.88;5451113;32;35746;-80
2023/10/18 14:47:38;;;;;;;;;;;;;;;17.02;34.21;100320.03;5449976;32;34152;-79
2023/10/18 14:50:40;;;;;;;;;;;;;;;16.76;34.58;100316.44;5448657;32;35103;-81
2023/10/18 14:53:44;;;;;;;;;;;;;;;16.51;35.15;100323.31;5447149;32;33984;-79
2023/10/18 14:56:47;;;;;;;;;;;;;;;16.67;34.98;100317.84;5447502;32;35208;-79
2023/10/18 14:59:49;;;;;;;;;;;;;;;16.50;35.30;100313.66;5446643;32;35701;-80
2023/10/18 15:02:52;;;;;;;;;;;;;;;16.61;35.18;100320.91;5445035;32;32539;-79
2023/10/18 15:05:55;;;;;;;;;;;;;;;16.72;35.08;100317.59;5449045;32;34228;-79
2023/10/18 15:08:57;;;;;;;;;;;;;;;16.22;35.94;100309.25;5447837;32;34094;-78
2023/10/18 15:11:59;;;;;;;;;;;;;;;16.79;34.97;100309.13;5450141;32;34593;-79
2023/10/18 15:15:07;;;;;;;;;;;;;;;16.67;34.75;100307.22;5446599;32;35226;-78
2023/10/18 15:18:10;;;;;;;;;;;;;;;16.16;35.84;100308.78;5447767;32;35484;-77
2023/10/18 15:21:13;;;;;;;;;;;;;;;16.50;35.51;100307.50;5448691;32;35216;-78
2023/10/18 15:24:15;;;;;;;;;;;;;;;16.37;35.67;100307.44;5447104;32;34195;-77
2023/10/18 15:27:18;;;;;;;;;;;;;;;16.61;35.04;100310.28;5450021;32;34277;-77
2023/10/18 15:30:20;;;;;;;;;;;;;;;16.42;35.54;100309.78;5447242;32;34372;-76
2023/10/18 15:33:23;;;;;;;;;;;;;;;15.93;36.58;100312.91;5447853;32;34327;-76
2023/10/18 15:36:26;;;;;;;;;;;;;;;15.95;36.80;100305.72;5447941;32;34452;-77
2023/10/18 15:39:28;;;;;;;;;;;;;;;16.25;36.21;100313.53;5450427;32;34101;-78
2023/10/18 15:42:32;;;;;;;;;;;;;;;15.12;38.42;100312.50;5435355;32;34553;-77
2023/10/18 15:45:35;;;;;;;;;;;;;;;15.16;39.06;100306.09;5447418;32;34147;-78
2023/10/18 15:48:37;;;;;;;;;;;;;;;14.84;39.38;100310.63;5450639;32;34129;-78
2023/10/18 15:51:40;;;;;;;;;;;;;;;15.59;37.93;100299.06;5446042;32;34435;-77
2023/10/18 15:54:42;;;;;;;;;;;;;;;15.09;40.89;100308.25;5450202;32;35707;-79
2023/10/18 15:57:47;;;;;;;;;;;;;;;15.13;41.27;100307.16;5446242;32;35279;-78
2023/10/18 16:00:50;;;;;;;;;;;;;;;15.16;41.21;100301.66;5446807;32;35868;-79
2023/10/18 16:03:52;;;;;;;;;;;;;;;15.12;41.15;100305.41;5449369;32;35763;-79
2023/10/18 16:06:55;;;;;;;;;;;;;;;14.90;42.45;100297.87;5449104;32;35209;-78
2023/10/18 16:09:58;;;;;;;;;;;;;;;14.63;43.36;100307.44;5449829;32;33197;-79
2023/10/18 16:13:00;;;;;;;;;;;;;;;14.92;40.73;100296.94;5444639;32;32811;-78
2023/10/18 16:16:05;;;;;;;;;;;;;;;14.87;41.59;100298.06;5419377;32;877160;-79
2023/10/18 16:19:11;;;;;;;;;;;;;;;15.11;40.45;100298.41;5435101;32;35449;-78
2023/10/18 16:22:14;;;;;;;;;;;;;;;15.23;39.72;100298.63;5446865;32;35418;-77
2023/10/18 16:25:16;;;;;;;;;;;;;;;14.78;40.75;100297.75;5435370;32;34199;-79
2023/10/18 16:28:18;;;;;;;;;;;;;;;15.11;40.01;100293.12;5448684;32;35420;-80